createdAt,value
2023-05-10T00:01:20.584Z,102075.28
2023-05-10T00:03:48.624Z,102071.00
2023-05-10T00:06:16.839Z,102070.00
2023-05-10T00:08:44.830Z,102074.28
2023-05-10T00:11:12.790Z,102071.91
2023-05-10T00:13:40.700Z,102077.31
2023-05-10T00:16:10.262Z,102080.09
2023-05-10T00:18:38.129Z,102079.47
2023-05-10T00:21:06.807Z,102074.25
2023-05-10T00:23:34.720Z,102076.63
2023-05-10T00:26:03.067Z,102081.06
2023-05-10T00:28:30.937Z,102077.69
2023-05-10T00:30:58.776Z,102078.88
2023-05-10T00:33:28.118Z,102079.81
2023-05-10T00:35:56.046Z,102082.00
2023-05-10T00:38:23.975Z,102083.03
2023-05-10T00:40:51.954Z,102077.88
2023-05-10T00:43:19.886Z,102078.03
2023-05-10T00:45:48.278Z,102079.16
2023-05-10T00:48:16.373Z,102081.69
2023-05-10T00:50:45.729Z,102089.72
2023-05-10T00:53:14.206Z,102090.72
2023-05-10T00:55:42.261Z,102082.16
2023-05-10T00:58:10.165Z,102080.47
2023-05-10T01:00:39.628Z,102078.13
2023-05-10T01:03:07.554Z,102088.84
2023-05-10T01:05:35.630Z,102089.13
2023-05-10T01:08:05.310Z,102082.91
2023-05-10T01:10:33.795Z,102081.28
2023-05-10T01:13:01.844Z,102082.53
2023-05-10T01:15:30.079Z,102089.38
2023-05-10T01:17:58.638Z,102085.72
2023-05-10T01:20:27.024Z,102082.22
2023-05-10T01:23:24.633Z,102089.38
2023-05-10T01:26:16.690Z,102091.59
2023-05-10T01:29:03.969Z,102081.94
2023-05-10T01:31:42.258Z,102082.25
2023-05-10T01:34:15.175Z,102088.34
2023-05-10T01:36:47.976Z,102089.38
2023-05-10T01:39:23.428Z,102078.66
2023-05-10T01:41:56.699Z,102094.53
2023-05-10T01:44:33.530Z,102096.25
2023-05-10T01:47:08.257Z,102083.88
2023-05-10T01:49:44.017Z,102092.38
2023-05-10T01:52:16.883Z,102097.19
2023-05-10T01:54:51.302Z,102097.31
2023-05-10T01:57:21.538Z,102099.09
2023-05-10T01:59:52.924Z,102095.75
2023-05-10T02:02:23.237Z,102107.88
2023-05-10T02:04:52.883Z,102098.63
2023-05-10T02:07:22.306Z,102100.97
2023-05-10T02:09:50.380Z,102096.81
2023-05-10T02:12:20.228Z,102101.22
2023-05-10T02:14:49.895Z,102100.47
2023-05-10T02:17:18.875Z,102103.00
2023-05-10T02:19:49.326Z,102095.38
2023-05-10T02:22:19.273Z,102110.19
2023-05-10T02:24:48.564Z,102102.41
2023-05-10T02:27:17.920Z,102110.50
2023-05-10T02:29:46.915Z,102113.09
2023-05-10T02:32:16.476Z,102113.16
2023-05-10T02:34:46.657Z,102120.09
2023-05-10T02:37:16.699Z,102110.63
2023-05-10T02:39:48.035Z,102110.94
2023-05-10T02:42:19.786Z,102112.75
2023-05-10T02:44:50.723Z,102117.31
2023-05-10T02:47:18.948Z,102113.13
2023-05-10T02:49:47.459Z,102115.91
2023-05-10T02:52:18.283Z,102113.53
2023-05-10T02:54:51.210Z,102115.50
2023-05-10T02:57:23.014Z,102113.06
2023-05-10T02:59:51.090Z,102112.41
2023-05-10T03:02:19.089Z,102120.44
2023-05-10T03:04:50.201Z,102115.47
2023-05-10T03:07:20.309Z,102113.16
2023-05-10T03:09:49.900Z,102109.09
2023-05-10T03:12:29.134Z,102117.06
2023-05-10T03:15:05.931Z,102113.69
2023-05-10T03:17:42.222Z,102103.50
2023-05-10T03:20:13.364Z,102110.41
2023-05-10T03:22:46.739Z,102116.53
2023-05-10T03:25:18.676Z,102117.41
2023-05-10T03:27:48.220Z,102114.69
2023-05-10T03:30:16.930Z,102121.47
2023-05-10T03:32:45.049Z,102122.00
2023-05-10T03:35:15.362Z,102121.84
2023-05-10T03:37:43.098Z,102117.31
2023-05-10T03:40:11.292Z,102123.50
2023-05-10T03:42:40.496Z,102127.81
2023-05-10T03:45:09.775Z,102124.47
2023-05-10T03:47:37.697Z,102121.59
2023-05-10T03:50:06.414Z,102119.47
2023-05-10T03:52:34.290Z,102116.03
2023-05-10T03:55:03.978Z,102121.75
2023-05-10T03:57:31.878Z,102111.03
2023-05-10T04:00:01.214Z,102114.41
2023-05-10T04:02:29.175Z,102116.91
2023-05-10T04:04:57.073Z,102119.97
2023-05-10T04:07:25.086Z,102119.84
2023-05-10T04:09:53.325Z,102113.88
2023-05-10T04:12:21.261Z,102114.34
2023-05-10T04:14:49.189Z,102117.19
2023-05-10T04:17:18.528Z,102117.47
2023-05-10T04:19:46.352Z,102108.72
2023-05-10T04:22:14.156Z,102113.81
2023-05-10T04:24:42.067Z,102115.22
2023-05-10T04:27:09.937Z,102116.66
2023-05-10T04:29:37.944Z,102115.19
2023-05-10T04:32:06.469Z,102110.28
2023-05-10T04:34:36.173Z,102112.56
2023-05-10T04:37:04.119Z,102108.97
2023-05-10T04:39:32.071Z,102111.22
2023-05-10T04:41:59.972Z,102110.69
2023-05-10T04:44:27.894Z,102110.44
2023-05-10T04:46:55.958Z,102107.78
2023-05-10T04:49:23.902Z,102103.31
2023-05-10T04:51:53.250Z,102102.19
2023-05-10T04:54:21.218Z,102114.09
2023-05-10T04:56:49.315Z,102116.44
2023-05-10T04:59:17.325Z,102116.25
2023-05-10T05:01:45.217Z,102117.28
2023-05-10T05:04:13.216Z,102114.03
2023-05-10T05:06:41.173Z,102117.81
2023-05-10T05:09:11.154Z,102114.75
2023-05-10T05:11:39.267Z,102116.91
2023-05-10T05:14:07.217Z,102111.94
2023-05-10T05:16:35.320Z,102114.13
2023-05-10T05:19:03.422Z,102115.03
2023-05-10T05:21:33.129Z,102114.09
2023-05-10T05:24:01.125Z,102111.31
2023-05-10T05:26:30.334Z,102101.16
2023-05-10T05:28:58.233Z,102107.63
2023-05-10T05:31:26.089Z,102109.00
2023-05-10T05:33:53.905Z,102111.84
2023-05-10T05:36:21.832Z,102111.56
2023-05-10T05:38:49.648Z,102106.56
2023-05-10T05:41:17.531Z,102113.78
2023-05-10T05:43:46.735Z,102106.22
2023-05-10T05:46:14.705Z,102108.06
2023-05-10T05:48:42.579Z,102110.25
2023-05-10T05:51:10.505Z,102115.16
2023-05-10T05:53:38.456Z,102107.69
2023-05-10T05:56:06.868Z,102106.84
2023-05-10T05:58:34.720Z,102107.44
2023-05-10T06:01:04.033Z,102107.97
2023-05-10T06:03:31.990Z,102106.91
2023-05-10T06:06:00.075Z,102103.81
2023-05-10T06:08:27.955Z,102100.31
2023-05-10T06:10:55.922Z,102104.03
2023-05-10T06:13:23.858Z,102103.94
2023-05-10T06:15:52.055Z,102097.91
2023-05-10T06:18:21.373Z,102101.13
2023-05-10T06:20:49.279Z,102108.00
2023-05-10T06:23:17.256Z,102101.31
2023-05-10T06:25:45.089Z,102104.69
2023-05-10T06:28:12.941Z,102100.25
2023-05-10T06:30:40.802Z,102104.84
2023-05-10T06:33:08.722Z,102108.69
2023-05-10T06:35:38.166Z,102103.66
2023-05-10T06:38:06.086Z,102095.81
2023-05-10T06:40:33.917Z,102099.94
2023-05-10T06:43:01.806Z,102101.81
2023-05-10T06:45:29.729Z,102100.09
2023-05-10T06:47:57.654Z,102101.13
2023-05-10T06:50:25.598Z,102101.72
2023-05-10T06:52:55.218Z,102102.34
2023-05-10T06:55:23.200Z,102100.25
2023-05-10T06:57:51.591Z,102092.09
2023-05-10T07:00:21.238Z,102094.44
2023-05-10T07:02:49.582Z,102089.00
2023-05-10T07:05:17.913Z,102100.34
2023-05-10T07:07:45.969Z,102090.72
2023-05-10T07:10:15.213Z,102087.88
2023-05-10T07:12:43.357Z,102090.41
2023-05-10T07:15:11.627Z,102085.63
2023-05-10T07:17:39.635Z,102088.00
2023-05-10T07:20:09.813Z,102088.16
2023-05-10T07:22:37.769Z,102090.94
2023-05-10T07:25:06.356Z,102095.16
2023-05-10T07:27:35.628Z,102086.50
2023-05-10T07:30:03.604Z,102097.25
2023-05-10T07:32:31.715Z,102100.16
2023-05-10T07:34:59.712Z,102102.13
2023-05-10T07:37:30.001Z,102097.28
2023-05-10T07:39:57.936Z,102092.38
2023-05-10T07:42:25.989Z,102096.16
2023-05-10T07:44:55.257Z,102098.28
2023-05-10T07:47:23.208Z,102105.13
2023-05-10T07:49:51.126Z,102097.00
2023-05-10T07:52:19.931Z,102101.97
2023-05-10T07:54:49.863Z,102109.94
2023-05-10T07:57:18.625Z,102104.72
2023-05-10T07:59:46.793Z,102107.16
2023-05-10T08:02:16.214Z,102107.78
2023-05-10T08:04:46.038Z,102104.53
2023-05-10T08:07:14.000Z,102103.44
2023-05-10T08:09:41.959Z,102107.50
2023-05-10T08:12:09.843Z,102100.25
2023-05-10T08:14:38.041Z,102105.28
2023-05-10T08:17:06.267Z,102103.25
2023-05-10T08:19:35.933Z,102104.44
2023-05-10T08:22:03.799Z,102100.97
2023-05-10T08:24:31.901Z,102115.66
2023-05-10T08:26:59.869Z,102115.56
2023-05-10T08:29:30.431Z,102115.31
2023-05-10T08:31:58.618Z,102111.00
2023-05-10T08:34:26.895Z,102111.00
2023-05-10T08:36:56.319Z,102107.56
2023-05-10T08:39:30.504Z,102111.25
2023-05-10T08:42:04.605Z,102112.09
2023-05-10T08:44:34.254Z,102115.47
2023-05-10T08:47:06.508Z,102104.97
2023-05-10T08:49:35.153Z,102104.38
2023-05-10T08:52:06.656Z,102097.69
2023-05-10T08:54:35.160Z,102094.22
2023-05-10T08:57:03.235Z,102104.44
2023-05-10T08:59:31.373Z,102105.72
2023-05-10T09:02:00.768Z,102109.44
2023-05-10T09:04:29.606Z,102108.19
2023-05-10T09:06:57.812Z,102110.16
2023-05-10T09:09:28.057Z,102113.28
2023-05-10T09:11:56.543Z,102106.81
2023-05-10T09:14:26.799Z,102103.63
2023-05-10T09:16:56.239Z,102108.81
2023-05-10T09:19:24.283Z,102114.41
2023-05-10T09:21:52.142Z,102110.63
2023-05-10T09:24:20.018Z,102104.78
2023-05-10T09:26:52.475Z,102107.47
2023-05-10T09:29:20.401Z,102104.09
2023-05-10T09:31:52.219Z,102104.94
2023-05-10T09:34:30.952Z,102102.97
2023-05-10T09:37:01.981Z,102102.81
2023-05-10T09:39:34.133Z,102106.16
2023-05-10T09:42:05.761Z,102106.59
2023-05-10T09:44:33.811Z,102105.44
2023-05-10T09:47:01.996Z,102103.38
2023-05-10T09:49:30.155Z,102111.88
2023-05-10T09:52:05.531Z,102101.78
2023-05-10T09:54:34.309Z,102104.09
2023-05-10T09:57:04.349Z,102105.03
2023-05-10T09:59:32.378Z,102103.38
2023-05-10T10:02:02.039Z,102106.06
2023-05-10T10:04:30.513Z,102106.34
2023-05-10T10:07:02.791Z,102093.44
2023-05-10T10:09:31.432Z,102088.28
2023-05-10T10:11:59.916Z,102101.44
2023-05-10T10:14:29.285Z,102089.69
2023-05-10T10:17:07.360Z,102093.75
2023-05-10T10:19:37.880Z,102101.19
2023-05-10T10:22:06.460Z,102087.44
2023-05-10T10:24:34.417Z,102095.28
2023-05-10T10:27:11.135Z,102088.31
2023-05-10T10:29:46.828Z,102091.81
2023-05-10T10:32:28.138Z,102092.22
2023-05-10T10:34:57.156Z,102093.19
2023-05-10T10:37:25.122Z,102087.72
2023-05-10T10:39:53.059Z,102075.66
2023-05-10T10:42:48.221Z,102084.53
2023-05-10T10:45:18.036Z,102088.16
2023-05-10T10:47:47.134Z,102088.72
2023-05-10T10:50:17.075Z,102076.69
2023-05-10T10:52:45.863Z,102077.13
2023-05-10T10:55:16.215Z,102071.66
2023-05-10T10:57:52.755Z,102071.09
2023-05-10T11:00:27.542Z,102062.28
2023-05-10T11:02:57.944Z,102060.59
2023-05-10T11:05:47.310Z,102060.03
2023-05-10T11:08:18.263Z,102072.22
2023-05-10T11:11:08.969Z,102065.22
2023-05-10T11:13:41.197Z,102057.38
2023-05-10T11:16:18.658Z,102069.16
2023-05-10T11:18:59.830Z,102067.19
2023-05-10T11:21:28.149Z,102056.81
2023-05-10T11:23:58.313Z,102063.97
2023-05-10T11:26:27.273Z,102052.31
2023-05-10T11:28:57.352Z,102064.25
2023-05-10T11:31:28.103Z,102059.66
2023-05-10T11:33:58.005Z,102060.16
2023-05-10T11:36:28.322Z,102058.50
2023-05-10T11:38:56.962Z,102048.97
2023-05-10T11:41:26.074Z,102061.56
2023-05-10T11:43:56.044Z,102059.19
2023-05-10T11:46:24.958Z,102052.91
2023-05-10T11:48:56.152Z,102050.25
2023-05-10T11:51:25.398Z,102060.75
2023-05-10T11:53:55.798Z,102049.97
2023-05-10T11:56:24.535Z,102058.66
2023-05-10T11:58:55.523Z,102057.81
2023-05-10T12:01:24.163Z,102056.81
2023-05-10T12:03:53.004Z,102063.69
2023-05-10T12:06:22.931Z,102065.06
2023-05-10T12:08:53.706Z,102059.31
2023-05-10T12:11:22.752Z,102064.22
2023-05-10T12:13:50.944Z,102050.09
2023-05-10T12:16:20.027Z,102051.78
2023-05-10T12:18:50.675Z,102057.06
2023-05-10T12:21:19.469Z,102058.75
2023-05-10T12:23:50.814Z,102066.03
2023-05-10T12:26:18.801Z,102058.63
2023-05-10T12:28:46.789Z,102066.59
2023-05-10T12:31:14.697Z,102062.56
2023-05-10T12:33:44.793Z,102056.81
2023-05-10T12:36:13.470Z,102051.31
2023-05-10T12:38:44.184Z,102065.34
2023-05-10T12:41:14.799Z,102063.25
2023-05-10T12:43:43.460Z,102053.56
2023-05-10T12:46:12.840Z,102056.50
2023-05-10T12:48:42.016Z,102070.91
2023-05-10T12:51:12.776Z,102068.94
2023-05-10T12:53:44.234Z,102062.06
2023-05-10T12:56:14.573Z,102059.72
2023-05-10T12:58:42.516Z,102059.16
2023-05-10T13:01:11.193Z,102055.69
2023-05-10T13:03:39.177Z,102069.22
2023-05-10T13:06:08.094Z,102063.63
2023-05-10T13:08:35.989Z,102061.94
2023-05-10T13:11:05.513Z,102042.03
2023-05-10T13:13:35.180Z,102051.16
2023-05-10T13:16:03.103Z,102059.63
2023-05-10T13:18:31.008Z,102054.22
2023-05-10T13:20:58.880Z,102046.53
2023-05-10T13:23:26.682Z,102049.44
2023-05-10T13:25:54.486Z,102052.56
2023-05-10T13:28:22.333Z,102049.19
2023-05-10T13:30:51.693Z,102049.63
2023-05-10T13:33:19.574Z,102057.81
2023-05-10T13:35:47.510Z,102052.16
2023-05-10T13:38:15.465Z,102046.53
2023-05-10T13:40:43.442Z,102046.00
2023-05-10T13:43:11.366Z,102046.38
2023-05-10T13:45:39.898Z,102048.72
2023-05-10T13:48:09.279Z,102056.97
2023-05-10T13:50:37.177Z,102060.25
2023-05-10T13:53:05.022Z,102049.75
2023-05-10T13:55:32.944Z,102046.25
2023-05-10T13:58:01.191Z,102044.19
2023-05-10T14:00:29.168Z,102043.19
2023-05-10T14:02:57.229Z,102043.06
2023-05-10T14:05:26.963Z,102041.66
2023-05-10T14:07:55.141Z,102050.63
2023-05-10T14:10:23.013Z,102033.28
2023-05-10T14:12:52.307Z,102043.00
2023-05-10T14:15:20.331Z,102031.97
2023-05-10T14:17:48.312Z,102037.28
2023-05-10T14:20:16.219Z,102032.78
2023-05-10T14:22:45.573Z,102034.44
2023-05-10T14:25:13.758Z,102025.34
2023-05-10T14:27:41.586Z,102025.94
2023-05-10T14:30:10.568Z,102035.31
2023-05-10T14:32:38.816Z,102031.25
2023-05-10T14:35:08.982Z,102026.38
2023-05-10T14:37:38.719Z,102036.72
2023-05-10T14:40:10.329Z,102015.38
2023-05-10T14:42:38.184Z,102020.44
2023-05-10T14:45:07.247Z,102017.09
2023-05-10T14:47:35.218Z,102011.31
2023-05-10T14:50:03.152Z,102013.72
2023-05-10T14:52:33.604Z,102012.97
2023-05-10T14:55:02.456Z,102020.34
2023-05-10T14:57:31.741Z,102015.84
2023-05-10T14:59:59.651Z,102008.66
2023-05-10T15:02:28.065Z,102022.94
2023-05-10T15:04:56.421Z,102009.53
2023-05-10T15:07:24.829Z,102012.56
2023-05-10T15:09:53.308Z,102014.78
2023-05-10T15:12:21.306Z,102013.91
2023-05-10T15:14:50.588Z,102011.31
2023-05-10T15:17:18.660Z,102016.06
2023-05-10T15:19:46.704Z,102017.72
2023-05-10T15:22:14.664Z,102017.97
2023-05-10T15:24:42.678Z,102023.09
2023-05-10T15:27:10.538Z,102018.41
2023-05-10T15:29:38.517Z,102021.44
2023-05-10T15:32:07.853Z,102029.41
2023-05-10T15:34:37.008Z,102009.94
2023-05-10T15:37:05.018Z,102011.34
2023-05-10T15:39:32.964Z,102007.41
2023-05-10T15:42:02.306Z,102015.88
2023-05-10T15:44:30.228Z,102015.75
2023-05-10T15:46:58.268Z,102010.38
2023-05-10T15:49:27.756Z,102015.56
2023-05-10T15:51:55.793Z,102005.00
2023-05-10T15:54:23.781Z,102008.03
2023-05-10T15:56:51.704Z,102005.25
2023-05-10T15:59:19.540Z,102009.00
2023-05-10T16:01:47.584Z,102007.09
2023-05-10T16:04:15.482Z,102013.81
2023-05-10T16:06:45.027Z,102005.63
2023-05-10T16:09:13.109Z,102017.34
2023-05-10T16:11:41.239Z,102014.00
2023-05-10T16:14:09.167Z,102028.56
2023-05-10T16:16:37.171Z,102018.34
2023-05-10T16:19:05.367Z,102020.25
2023-05-10T16:21:33.500Z,102022.34
2023-05-10T16:24:04.171Z,102016.94
2023-05-10T16:26:32.033Z,102025.97
2023-05-10T16:28:59.911Z,102036.94
2023-05-10T16:31:27.837Z,102024.28
2023-05-10T16:33:58.932Z,102031.88
2023-05-10T16:36:27.208Z,102027.44
2023-05-10T16:38:55.508Z,102031.78
2023-05-10T16:41:24.752Z,102036.47
2023-05-10T16:43:52.694Z,102032.03
2023-05-10T16:46:20.688Z,102025.88
2023-05-10T16:48:48.606Z,102028.88
2023-05-10T16:51:16.526Z,102039.84
2023-05-10T16:53:44.346Z,102028.31
2023-05-10T16:56:12.310Z,102039.59
2023-05-10T16:58:41.961Z,102027.56
2023-05-10T17:01:09.968Z,102034.78
2023-05-10T17:03:38.034Z,102038.75
2023-05-10T17:06:06.910Z,102041.50
2023-05-10T17:08:34.922Z,102040.69
2023-05-10T17:11:03.546Z,102049.09
2023-05-10T17:13:31.815Z,102046.69
2023-05-10T17:16:03.625Z,102041.47
2023-05-10T17:18:31.998Z,102048.59
2023-05-10T17:20:59.960Z,102050.97
2023-05-10T17:23:28.322Z,102057.22
2023-05-10T17:25:56.215Z,102054.81
2023-05-10T17:28:24.205Z,102055.13
2023-05-10T17:30:57.654Z,102045.84
2023-05-10T17:33:27.133Z,102052.09
2023-05-10T17:35:54.955Z,102061.69
2023-05-10T17:38:22.831Z,102060.50
2023-05-10T17:40:50.658Z,102069.72
2023-05-10T17:43:18.510Z,102067.44
2023-05-10T17:45:49.058Z,102072.09
2023-05-10T17:48:17.336Z,102069.56
2023-05-10T17:50:46.942Z,102070.34
2023-05-10T17:53:14.852Z,102071.38
2023-05-10T17:55:43.732Z,102068.25
2023-05-10T17:58:13.293Z,102074.81
2023-05-10T18:00:41.494Z,102074.53
2023-05-10T18:03:09.634Z,102082.78
2023-05-10T18:05:38.349Z,102080.81
2023-05-10T18:08:08.657Z,102091.06
2023-05-10T18:10:40.656Z,102084.63
2023-05-10T18:13:09.399Z,102081.50
2023-05-10T18:15:37.540Z,102084.44
2023-05-10T18:18:05.831Z,102092.03
2023-05-10T18:20:33.863Z,102088.16
2023-05-10T18:23:02.560Z,102089.72
2023-05-10T18:25:32.029Z,102092.28
2023-05-10T18:28:00.109Z,102091.72
2023-05-10T18:30:28.274Z,102086.25
2023-05-10T18:32:56.280Z,102096.47
2023-05-10T18:35:24.415Z,102099.75
2023-05-10T18:37:53.319Z,102099.50
2023-05-10T18:40:21.432Z,102107.63
2023-05-10T18:42:50.942Z,102106.34
2023-05-10T18:45:19.592Z,102103.41
2023-05-10T18:47:48.515Z,102114.34
2023-05-10T18:50:17.828Z,102113.03
2023-05-10T18:52:46.665Z,102111.53
2023-05-10T18:55:15.145Z,102109.47
2023-05-10T18:57:43.455Z,102110.09
2023-05-10T19:00:14.617Z,102112.47
2023-05-10T19:02:43.106Z,102114.75
2023-05-10T19:05:11.877Z,102113.00
2023-05-10T19:07:43.536Z,102114.53
2023-05-10T19:10:13.926Z,102116.69
2023-05-10T19:12:42.563Z,102118.28
2023-05-10T19:15:12.996Z,102125.47
2023-05-10T19:17:43.351Z,102121.31
2023-05-10T19:20:13.237Z,102119.50
2023-05-10T19:22:57.900Z,102131.44
2023-05-10T19:25:32.040Z,102132.22
2023-05-10T19:28:00.476Z,102130.88
2023-05-10T19:30:34.664Z,102131.03
2023-05-10T19:33:04.595Z,102134.16
2023-05-10T19:35:32.916Z,102139.94
2023-05-10T19:38:01.221Z,102143.84
2023-05-10T19:40:29.997Z,102139.78
2023-05-10T19:42:58.352Z,102136.91
2023-05-10T19:45:26.986Z,102139.97
2023-05-10T19:47:56.712Z,102136.00
2023-05-10T19:50:25.146Z,102143.66
2023-05-10T19:52:53.497Z,102136.13
2023-05-10T19:55:30.907Z,102135.78
2023-05-10T19:58:00.690Z,102135.78
2023-05-10T20:00:29.200Z,102131.03
2023-05-10T20:02:59.220Z,102138.41
2023-05-10T20:05:27.570Z,102135.31
2023-05-10T20:07:55.860Z,102131.34
2023-05-10T20:10:26.871Z,102135.28
2023-05-10T20:12:55.305Z,102136.47
2023-05-10T20:15:24.828Z,102144.66
2023-05-10T20:17:53.917Z,102133.88
2023-05-10T20:20:23.667Z,102141.22
2023-05-10T20:22:51.682Z,102139.16
2023-05-10T20:25:20.208Z,102147.34
2023-05-10T20:27:50.783Z,102140.66
2023-05-10T20:30:19.183Z,102144.63
2023-05-10T20:32:47.240Z,102147.66
2023-05-10T20:35:15.113Z,102146.44
2023-05-10T20:37:44.436Z,102143.34
2023-05-10T20:40:12.944Z,102149.81
2023-05-10T20:42:40.864Z,102152.13
2023-05-10T20:45:10.006Z,102148.78
2023-05-10T20:47:37.931Z,102151.63
2023-05-10T20:50:06.682Z,102150.97
2023-05-10T20:52:34.683Z,102155.59
2023-05-10T20:55:04.157Z,102151.44
2023-05-10T20:57:32.057Z,102151.66
2023-05-10T21:00:00.007Z,102155.22
2023-05-10T21:02:28.131Z,102150.13
2023-05-10T21:04:57.997Z,102157.31
2023-05-10T21:07:26.287Z,102154.84
2023-05-10T21:09:54.247Z,102158.25
2023-05-10T21:12:24.137Z,102159.09
2023-05-10T21:14:51.994Z,102158.13
2023-05-10T21:17:20.303Z,102155.50
2023-05-10T21:19:48.373Z,102156.53
2023-05-10T21:22:16.485Z,102157.63
2023-05-10T21:24:44.956Z,102163.91
2023-05-10T21:27:13.083Z,102165.88
2023-05-10T21:29:42.404Z,102159.91
2023-05-10T21:32:10.623Z,102164.34
2023-05-10T21:34:38.493Z,102169.06
2023-05-10T21:37:06.469Z,102160.53
2023-05-10T21:39:34.403Z,102169.31
2023-05-10T21:42:03.516Z,102170.53
2023-05-10T21:44:32.184Z,102170.88
2023-05-10T21:47:01.958Z,102172.00
2023-05-10T21:49:29.866Z,102174.81
2023-05-10T21:51:57.820Z,102182.06
2023-05-10T21:54:25.752Z,102183.25
2023-05-10T21:56:53.673Z,102182.59
2023-05-10T21:59:22.517Z,102185.47
2023-05-10T22:01:50.501Z,102187.56
2023-05-10T22:04:20.043Z,102187.03
2023-05-10T22:06:49.052Z,102191.81
2023-05-10T22:09:16.984Z,102191.22
2023-05-10T22:11:44.866Z,102194.94
2023-05-10T22:14:12.831Z,102191.84
2023-05-10T22:16:40.740Z,102195.53
2023-05-10T22:19:08.678Z,102195.63
2023-05-10T22:21:38.064Z,102198.53
2023-05-10T22:24:06.114Z,102200.53
2023-05-10T22:26:34.138Z,102209.44
2023-05-10T22:29:02.189Z,102206.97
2023-05-10T22:31:30.294Z,102207.22
2023-05-10T22:33:58.308Z,102213.59
2023-05-10T22:36:26.431Z,102213.03
2023-05-10T22:38:55.848Z,102215.00
2023-05-10T22:41:23.975Z,102214.25
2023-05-10T22:43:51.909Z,102219.50
2023-05-10T22:46:19.821Z,102223.03
2023-05-10T22:48:48.104Z,102217.03
2023-05-10T22:51:16.178Z,102213.72
2023-05-10T22:53:44.190Z,102221.66
2023-05-10T22:56:13.900Z,102217.47
2023-05-10T22:58:41.734Z,102224.72
2023-05-10T23:01:09.581Z,102229.53
2023-05-10T23:03:37.566Z,102225.22
2023-05-10T23:06:06.184Z,102226.50
2023-05-10T23:08:34.089Z,102226.47
2023-05-10T23:11:02.088Z,102236.06
2023-05-10T23:13:31.340Z,102232.84
2023-05-10T23:15:59.267Z,102225.16
2023-05-10T23:18:27.231Z,102231.31
2023-05-10T23:20:55.160Z,102238.28
2023-05-10T23:23:23.143Z,102236.75
2023-05-10T23:25:51.471Z,102238.53
2023-05-10T23:28:19.602Z,102238.59
2023-05-10T23:30:48.958Z,102236.19
2023-05-10T23:33:16.849Z,102246.72
2023-05-10T23:35:44.849Z,102242.59
2023-05-10T23:38:12.932Z,102236.72
2023-05-10T23:40:40.943Z,102232.47
2023-05-10T23:43:08.863Z,102236.81
2023-05-10T23:45:36.774Z,102237.78
2023-05-10T23:48:06.238Z,102239.69
2023-05-10T23:50:34.277Z,102251.25
2023-05-10T23:53:02.250Z,102246.25
2023-05-10T23:55:30.125Z,102251.75
2023-05-10T23:57:58.010Z,102253.63
